createdAt,value
2023-01-09T00:00:15.993Z,124.53
2023-01-09T00:05:22.617Z,136.02
2023-01-09T00:10:28.977Z,118.63
2023-01-09T00:20:40.638Z,124.30
2023-01-09T00:30:58.716Z,137.80
2023-01-09T00:36:05.609Z,131.50
2023-01-09T00:41:14.755Z,132.32
2023-01-09T00:46:21.545Z,122.15
2023-01-09T00:51:27.846Z,124.65
2023-01-09T00:56:34.564Z,128.00
2023-01-09T01:07:04.581Z,125.20
2023-01-09T01:12:13.537Z,131.75
2023-01-09T01:17:20.110Z,117.05
2023-01-09T01:22:26.298Z,123.53
2023-01-09T01:27:33.323Z,113.22
2023-01-09T01:32:40.587Z,129.50
2023-01-09T01:37:47.347Z,130.50
2023-01-09T01:42:55.927Z,120.10
2023-01-09T01:48:05.809Z,122.78
2023-01-09T01:53:12.653Z,130.75
2023-01-09T01:58:20.056Z,124.03
2023-01-09T02:03:28.768Z,111.20
2023-01-09T02:08:35.287Z,132.88
2023-01-09T02:18:58.979Z,117.35
2023-01-09T02:24:14.136Z,104.28
2023-01-09T02:29:35.307Z,123.32
2023-01-09T02:35:04.325Z,100.10
2023-01-09T02:40:25.680Z,98.22
2023-01-09T02:45:32.548Z,131.90
2023-01-09T02:51:07.748Z,119.68
2023-01-09T02:56:32.487Z,112.75
2023-01-09T03:01:47.968Z,109.93
2023-01-09T03:07:11.213Z,114.53
2023-01-09T03:12:20.694Z,147.40
2023-01-09T03:17:32.950Z,135.02
2023-01-09T03:22:39.292Z,145.05
2023-01-09T03:27:45.833Z,160.88
2023-01-09T03:37:57.731Z,154.98
2023-01-09T03:43:03.647Z,99.60
2023-01-09T03:48:10.223Z,154.45
2023-01-09T03:53:16.642Z,154.18
2023-01-09T04:03:28.354Z,108.15
2023-01-09T04:08:34.932Z,118.72
2023-01-09T04:13:41.276Z,114.80
2023-01-09T04:18:47.698Z,152.77
2023-01-09T04:23:53.727Z,188.55
2023-01-09T04:28:59.609Z,125.90
2023-01-09T04:34:06.121Z,118.50
2023-01-09T04:39:12.584Z,138.52
2023-01-09T04:44:21.361Z,165.07
2023-01-09T04:49:27.928Z,130.20
2023-01-09T04:59:39.626Z,136.57
2023-01-09T05:04:46.160Z,178.70
2023-01-09T05:09:52.640Z,140.48
2023-01-09T05:15:04.019Z,113.22
2023-01-09T05:20:11.133Z,122.63
2023-01-09T05:25:17.799Z,155.35
2023-01-09T05:30:24.566Z,167.15
2023-01-09T05:35:32.480Z,144.88
2023-01-09T05:40:40.771Z,191.40
2023-01-09T05:45:49.103Z,164.95
2023-01-09T05:50:55.908Z,101.00
2023-01-09T05:56:02.550Z,184.93
2023-01-09T06:01:10.244Z,195.75
2023-01-09T06:06:16.887Z,199.43
2023-01-09T06:11:27.438Z,182.45
2023-01-09T06:16:35.610Z,162.52
2023-01-09T06:21:42.435Z,182.05
2023-01-09T06:26:52.019Z,187.13
2023-01-09T06:32:02.169Z,186.27
2023-01-09T06:37:10.905Z,187.52
2023-01-09T06:42:19.540Z,190.07
2023-01-09T06:47:27.758Z,196.50
2023-01-09T06:52:34.490Z,176.88
2023-01-09T06:57:41.521Z,145.02
2023-01-09T07:02:48.617Z,191.23
2023-01-09T07:07:55.134Z,176.07
2023-01-09T07:13:01.559Z,183.13
2023-01-09T07:23:16.126Z,184.15
2023-01-09T07:28:22.004Z,173.68
2023-01-09T07:33:28.243Z,169.73
2023-01-09T07:38:37.343Z,184.85
2023-01-09T07:43:43.692Z,184.38
2023-01-09T07:53:55.420Z,188.65
2023-01-09T07:59:01.513Z,195.07
2023-01-09T08:04:08.070Z,190.10
2023-01-09T08:09:15.658Z,191.27
2023-01-09T08:14:21.883Z,193.45
2023-01-09T08:19:27.616Z,199.38
2023-01-09T08:24:34.639Z,210.00
2023-01-09T08:29:41.670Z,185.70
2023-01-09T08:34:47.888Z,191.25
2023-01-09T08:45:17.798Z,194.45
2023-01-09T08:50:23.516Z,170.40
2023-01-09T08:55:29.531Z,183.15
2023-01-09T09:00:35.801Z,167.20
2023-01-09T09:10:47.037Z,183.68
2023-01-09T09:15:53.578Z,184.18
2023-01-09T09:21:00.643Z,187.70
2023-01-09T09:26:07.557Z,198.88
2023-01-09T09:31:14.213Z,187.07
2023-01-09T09:36:20.730Z,192.00
2023-01-09T09:41:55.781Z,198.13
2023-01-09T09:47:09.240Z,196.35
2023-01-09T09:52:18.214Z,181.13
2023-01-09T09:57:28.293Z,183.93
2023-01-09T10:02:42.953Z,182.30
2023-01-09T10:07:54.082Z,202.30
2023-01-09T10:13:25.940Z,187.90
2023-01-09T10:18:48.260Z,186.40
2023-01-09T10:24:09.729Z,187.43
2023-01-09T10:29:16.154Z,193.80
2023-01-09T10:39:34.625Z,208.02
2023-01-09T10:44:46.484Z,198.52
2023-01-09T10:49:54.029Z,188.98
2023-01-09T10:55:04.266Z,185.18
2023-01-09T11:00:14.678Z,194.52
2023-01-09T11:05:32.937Z,190.65
2023-01-09T11:10:55.840Z,208.68
2023-01-09T11:16:17.558Z,220.18
2023-01-09T11:21:24.569Z,211.00
2023-01-09T11:26:31.965Z,243.77
2023-01-09T11:31:39.706Z,226.73
2023-01-09T11:36:46.504Z,240.10
2023-01-09T11:41:56.655Z,238.70
2023-01-09T11:47:06.507Z,246.18
2023-01-09T11:52:12.765Z,240.50
2023-01-09T11:57:21.288Z,254.45
2023-01-09T12:02:42.150Z,243.15
2023-01-09T12:07:54.301Z,253.07
2023-01-09T12:13:22.661Z,245.43
2023-01-09T12:18:43.349Z,231.40
2023-01-09T12:23:58.426Z,253.10
2023-01-09T12:29:12.559Z,279.65
2023-01-09T12:34:30.180Z,244.40
2023-01-09T12:40:01.310Z,248.02
2023-01-09T12:45:25.406Z,257.65
2023-01-09T12:55:53.877Z,256.77
2023-01-09T13:06:54.674Z,251.90
2023-01-09T13:13:03.047Z,263.42
2023-01-09T13:18:46.760Z,255.60
2023-01-09T13:25:16.450Z,267.00
2023-01-09T13:30:47.084Z,289.10
2023-01-09T13:41:50.656Z,240.73
2023-01-09T13:47:09.556Z,297.08
2023-01-09T13:53:14.423Z,264.43
2023-01-09T13:58:30.387Z,270.02
2023-01-09T14:03:46.288Z,243.68
2023-01-09T14:09:15.056Z,230.23
2023-01-09T14:14:33.117Z,247.88
2023-01-09T14:19:50.951Z,221.60
2023-01-09T14:25:18.904Z,223.40
2023-01-09T14:30:52.893Z,230.75
2023-01-09T14:36:29.323Z,189.63
2023-01-09T14:42:26.818Z,233.50
2023-01-09T14:53:35.879Z,270.25
2023-01-09T14:58:51.471Z,278.70
2023-01-09T15:09:41.222Z,258.45
2023-01-09T15:20:20.143Z,270.52
2023-01-09T15:25:40.745Z,253.85
2023-01-09T15:30:54.819Z,238.52
2023-01-09T15:36:04.603Z,250.13
2023-01-09T15:41:18.981Z,238.93
2023-01-09T15:46:32.729Z,261.60
2023-01-09T15:51:39.659Z,249.23
2023-01-09T15:56:53.312Z,240.70
2023-01-09T16:02:24.399Z,229.85
2023-01-09T16:07:40.382Z,232.05
2023-01-09T16:12:57.477Z,227.63
2023-01-09T16:18:27.186Z,221.50
2023-01-09T16:23:38.218Z,216.52
2023-01-09T16:28:44.829Z,211.68
2023-01-09T16:33:54.995Z,219.32
2023-01-09T16:39:02.892Z,201.05
2023-01-09T16:44:11.359Z,202.25
2023-01-09T16:49:17.643Z,210.73
2023-01-09T16:59:30.399Z,199.48
2023-01-09T17:04:49.792Z,192.38
2023-01-09T17:09:55.944Z,204.70
2023-01-09T17:15:04.087Z,195.60
2023-01-09T17:20:29.492Z,208.30
2023-01-09T17:25:54.139Z,217.07
2023-01-09T17:31:00.164Z,201.90
2023-01-09T17:36:07.146Z,211.15
2023-01-09T17:41:15.847Z,198.45
2023-01-09T17:46:26.421Z,209.52
2023-01-09T17:51:32.387Z,197.80
2023-01-09T17:56:39.198Z,196.35
2023-01-09T18:01:46.444Z,195.70
2023-01-09T18:06:52.615Z,186.73
2023-01-09T18:17:04.130Z,196.57
2023-01-09T18:22:10.190Z,192.73
2023-01-09T18:32:21.598Z,187.90
2023-01-09T18:42:32.931Z,192.15
2023-01-09T18:52:48.182Z,188.93
2023-01-09T18:57:54.420Z,185.10
2023-01-09T19:03:00.881Z,185.30
2023-01-09T19:13:28.579Z,199.32
2023-01-09T19:42:10.890Z,195.30
2023-01-09T19:47:17.198Z,196.85
2023-01-09T19:57:30.037Z,210.77
2023-01-09T20:02:36.166Z,206.20
2023-01-09T20:07:43.358Z,197.80
2023-01-09T20:12:49.302Z,200.70
2023-01-09T20:17:55.307Z,197.13
2023-01-09T20:28:06.233Z,200.10
2023-01-09T20:33:12.605Z,200.80
2023-01-09T20:38:19.256Z,182.77
2023-01-09T20:43:26.722Z,201.93
2023-01-09T20:48:33.318Z,204.70
2023-01-09T20:53:39.301Z,198.18
2023-01-09T20:58:45.445Z,194.93
2023-01-09T21:03:52.585Z,198.15
2023-01-09T21:08:58.638Z,197.13
2023-01-09T21:14:04.253Z,184.35
2023-01-09T21:19:10.410Z,196.03
2023-01-09T21:29:21.786Z,206.45
2023-01-09T21:34:27.650Z,196.90
2023-01-09T21:39:34.025Z,193.65
2023-01-09T21:50:04.686Z,197.98
2023-01-09T21:55:11.035Z,193.55
2023-01-09T22:05:23.038Z,192.88
2023-01-09T22:10:28.971Z,204.32
2023-01-09T22:15:35.399Z,203.38
2023-01-09T22:20:41.325Z,197.82
2023-01-09T22:25:47.407Z,197.13
2023-01-09T22:30:53.446Z,205.65
2023-01-09T22:35:59.265Z,208.60
2023-01-09T22:41:05.238Z,204.30
2023-01-09T22:46:12.161Z,220.15
2023-01-09T22:51:21.483Z,207.80
2023-01-09T22:56:27.480Z,206.75
2023-01-09T23:01:33.999Z,214.50
2023-01-09T23:06:40.385Z,211.25
2023-01-09T23:12:14.553Z,214.32
2023-01-09T23:17:20.788Z,217.88
2023-01-09T23:22:27.535Z,215.63
2023-01-09T23:27:33.457Z,220.70
2023-01-09T23:32:39.991Z,219.00
2023-01-09T23:43:09.794Z,193.52
2023-01-09T23:48:16.704Z,191.35
2023-01-09T23:53:23.317Z,203.10
2023-01-09T23:58:29.520Z,239.20
